Aktualna pogoda na lotniskach (dane METAR)

 

EPGD - Gdansk/Rebiechow, Poland
Distance from station: ENE 44km
Updated: Thu, 26-Apr-2018 13:30 CEST
Partly Cloudy
Partly Cloudy
 Wind from W
Wiatr: W 17 km/h
Temperatura: 10°C
Indeks Wychł.: 8°C
Punkt Rosy: 6°C
Wilgotność: 76%
Ciśnienie: 1008 hPa
Zachmurzenie: Partly Cloudy
Widzialność: 10 km
Szczegóły zachm.: Few Clouds 91 m
Partly Cloudy 1036 m
2018/04/26 11:30 EPGD 261130Z 26009KT 220V290 9999 FEW003 SCT034TCU 10/06 Q1008 RESHRA
EPSC - Szczecin/Golenio, Poland
Distance from station: WSW 205km
Updated: Thu, 26-Apr-2018 13:30 CEST
Mostly Cloudy
Mostly Cloudy
 Wind from varies
Wiatr: varies 7 km/h
Temperatura: 8°C
Indeks Wychł.: 7°C
Punkt Rosy: 7°C
Wilgotność: 93%
Ciśnienie: 1010 hPa
Zachmurzenie: Mostly Cloudy
Widzialność: 10 km
Szczegóły zachm.: Partly Cloudy 213 m
Mostly Cloudy 396 m
2018/04/26 11:30 EPSC 261130Z VRB04KT 9999 SCT007 BKN013CB 08/07 Q1010
 
EPPO - Poznan/Lawica, Poland
Distance from station: SSW 210km
Updated: Thu, 26-Apr-2018 13:30 CEST
Light rain, Showers, Mostly cloudy
Light rain, Showers, Mostly cloudy
 Wind from WNW
Wiatr: WNW 15 km/h
Temperatura: 8°C
Indeks Wychł.: 5°C
Punkt Rosy: 6°C
Wilgotność: 87%
Ciśnienie: 1012 hPa
Ogólnie: Light rain, Showers
Zachmurzenie: Mostly Cloudy
Widzialność: 10 km
Szczegóły zachm.: Mostly Cloudy 762 m
2018/04/26 11:30 EPPO 261130Z 30008KT 9999 -SHRA BKN025CB 08/06 Q1012 RETS RERA
EPLL - Lodz/Lublinek, Poland
Distance from station: SSE 296km
Updated: Thu, 26-Apr-2018 13:30 CEST
Clear
Clear
 Wind from W
Wiatr: W 19 km/h
Temperatura: 15°C
Punkt Rosy: 4°C
Wilgotność: 48%
Ciśnienie: 1011 hPa
Ogólnie: Clear
Widzialność: greater than 10 km
2018/04/26 11:30 EPLL 261130Z 27010KT 240V320 CAVOK 15/04 Q1011
 
EPWA - Warsaw/Okecie, Poland
Distance from station: SE 307km
Updated: Thu, 26-Apr-2018 13:30 CEST
Few Clouds
Few Clouds
 Wind from WNW
Wiatr: WNW 17 km/h
Temperatura: 15°C
Punkt Rosy: 5°C
Wilgotność: 51%
Ciśnienie: 1011 hPa
Zachmurzenie: Few Clouds
Widzialność: 10 km
Szczegóły zachm.: Few Clouds 1524 m
2018/04/26 11:30 EPWA 261130Z 29009KT 260V320 9999 FEW050TCU 15/05 Q1011 NOSIG
EPWR - Wroclaw/Strachow, Poland
Distance from station: S 352km
Updated: Thu, 26-Apr-2018 13:30 CEST
Mostly Cloudy
Mostly Cloudy
 Wind from WNW
Wiatr: WNW 17 km/h
Temperatura: 13°C
Punkt Rosy: 9°C
Wilgotność: 77%
Ciśnienie: 1013 hPa
Zachmurzenie: Mostly Cloudy
Widzialność: 10 km
Szczegóły zachm.: Few Clouds 610 m
Mostly Cloudy 914 m
2018/04/26 11:30 EPWR 261130Z 29009KT 9999 FEW020CB BKN030 13/09 Q1013

Metar display script from Saratoga-Weather.org